createdAt,value
2019-01-16T00:02:22.773Z,64.70
2019-01-16T00:05:09.714Z,64.90
2019-01-16T00:07:55.024Z,66.90
2019-01-16T00:10:41.987Z,64.53
2019-01-16T00:13:28.982Z,64.03
2019-01-16T00:16:16.080Z,65.57
2019-01-16T00:19:00.137Z,68.50
2019-01-16T00:24:35.965Z,65.47
2019-01-16T00:27:22.906Z,65.40
2019-01-16T00:30:09.996Z,64.77
2019-01-16T00:32:57.045Z,64.97
2019-01-16T00:35:43.979Z,64.87
2019-01-16T00:38:30.935Z,67.00
2019-01-16T00:41:17.934Z,67.90
2019-01-16T00:43:58.951Z,68.00
2019-01-16T00:46:46.165Z,66.00
2019-01-16T00:49:33.177Z,67.17
2019-01-16T00:52:20.161Z,68.90
2019-01-16T00:55:07.052Z,71.20
2019-01-16T00:57:54.008Z,68.40
2019-01-16T01:00:40.936Z,76.63
2019-01-16T01:03:27.909Z,67.90
2019-01-16T01:06:14.846Z,70.63
2019-01-16T01:09:01.919Z,68.45
2019-01-16T01:11:48.833Z,65.83
2019-01-16T01:14:35.889Z,65.87
2019-01-16T01:17:22.897Z,66.50
2019-01-16T01:20:09.912Z,64.83
2019-01-16T01:22:56.927Z,64.30
2019-01-16T01:25:40.179Z,67.80
2019-01-16T01:28:27.117Z,64.70
2019-01-16T01:31:14.061Z,67.50
2019-01-16T01:34:01.120Z,64.50
2019-01-16T01:36:48.073Z,67.47
2019-01-16T01:39:35.076Z,66.10
2019-01-16T01:42:22.018Z,66.03
2019-01-16T01:45:09.058Z,65.60
2019-01-16T01:47:55.959Z,66.50
2019-01-16T01:50:42.987Z,64.33
2019-01-16T01:53:29.984Z,66.67
2019-01-16T01:56:16.892Z,64.30
2019-01-16T01:59:03.818Z,66.90
2019-01-16T02:01:51.025Z,73.00
2019-01-16T02:04:37.944Z,65.23
2019-01-16T02:07:24.884Z,66.47
2019-01-16T02:10:11.868Z,65.97
2019-01-16T02:12:59.086Z,64.10
2019-01-16T02:15:45.983Z,63.80
2019-01-16T02:18:32.959Z,67.80
2019-01-16T02:21:20.032Z,67.70
2019-01-16T02:24:06.972Z,64.30
2019-01-16T02:26:53.994Z,69.37
2019-01-16T02:29:40.914Z,71.17
2019-01-16T02:32:27.787Z,71.07
2019-01-16T02:35:14.821Z,68.37
2019-01-16T02:38:01.728Z,68.90
2019-01-16T02:40:48.774Z,70.93
2019-01-16T02:43:29.318Z,70.40
2019-01-16T02:46:16.236Z,67.90
2019-01-16T02:49:03.212Z,65.70
2019-01-16T02:51:50.155Z,64.60
2019-01-16T02:57:41.223Z,65.97
2019-01-16T03:00:18.489Z,66.57
2019-01-16T03:03:05.432Z,70.43
2019-01-16T03:05:49.400Z,66.77
2019-01-16T03:08:36.309Z,71.00
2019-01-16T03:11:23.389Z,65.97
2019-01-16T03:14:10.347Z,67.70
2019-01-16T03:16:55.837Z,71.60
2019-01-16T03:19:42.821Z,66.57
2019-01-16T03:22:23.458Z,77.07
2019-01-16T03:25:07.733Z,75.70
2019-01-16T03:27:54.673Z,69.90
2019-01-16T03:30:41.601Z,70.03
2019-01-16T03:33:22.001Z,66.00
2019-01-16T03:36:08.936Z,67.00
2019-01-16T03:38:55.920Z,66.30
2019-01-16T03:41:42.902Z,69.20
2019-01-16T03:44:29.875Z,70.47
2019-01-16T03:47:16.798Z,65.37
2019-01-16T03:50:04.063Z,66.43
2019-01-16T03:52:50.949Z,67.47
2019-01-16T03:55:35.151Z,67.70
2019-01-16T03:58:22.397Z,67.07
2019-01-16T04:01:00.466Z,68.07
2019-01-16T04:03:47.341Z,66.70
2019-01-16T04:06:34.267Z,67.83
2019-01-16T04:09:21.216Z,68.80
2019-01-16T04:12:08.185Z,66.77
2019-01-16T04:14:55.073Z,66.67
2019-01-16T04:17:42.008Z,65.33
2019-01-16T04:20:28.966Z,66.47
2019-01-16T04:23:15.961Z,66.67
2019-01-16T04:26:02.895Z,64.20
2019-01-16T04:28:38.949Z,69.10
2019-01-16T04:34:27.079Z,68.27
2019-01-16T04:37:14.041Z,70.23
2019-01-16T04:40:00.998Z,67.00
2019-01-16T04:42:48.218Z,71.70
2019-01-16T04:45:23.699Z,65.40
2019-01-16T04:48:10.581Z,65.40
2019-01-16T04:50:57.490Z,64.10
2019-01-16T04:53:44.453Z,64.67
2019-01-16T04:56:31.653Z,65.43
2019-01-16T04:59:17.275Z,65.77
2019-01-16T05:02:04.267Z,67.53
2019-01-16T05:04:51.285Z,69.33
2019-01-16T05:07:38.248Z,70.77
2019-01-16T05:10:18.763Z,65.43
2019-01-16T05:13:01.072Z,66.30
2019-01-16T05:15:48.038Z,66.70
2019-01-16T05:18:34.988Z,68.40
2019-01-16T05:21:21.952Z,66.33
2019-01-16T05:24:08.933Z,74.83
2019-01-16T05:26:47.329Z,70.07
2019-01-16T05:29:34.306Z,71.13
2019-01-16T05:32:21.237Z,71.97
2019-01-16T05:35:08.163Z,80.40
2019-01-16T05:37:55.180Z,66.13
2019-01-16T05:40:42.087Z,70.07
2019-01-16T05:43:20.319Z,66.87
2019-01-16T05:48:49.899Z,79.40
2019-01-16T05:51:36.808Z,65.50
2019-01-16T05:54:23.723Z,66.77
2019-01-16T05:57:10.963Z,68.40
2019-01-16T05:59:57.916Z,70.53
2019-01-16T06:02:44.930Z,67.83
2019-01-16T06:05:31.893Z,68.30
2019-01-16T06:08:18.880Z,68.17
2019-01-16T06:11:05.817Z,73.60
2019-01-16T06:13:53.039Z,82.10
2019-01-16T06:16:39.984Z,68.97
2019-01-16T06:19:26.937Z,71.80
2019-01-16T06:22:13.870Z,80.20
2019-01-16T06:25:00.945Z,79.53
2019-01-16T06:27:47.916Z,80.90
2019-01-16T06:30:34.975Z,82.53
2019-01-16T06:33:21.965Z,82.23
2019-01-16T06:36:08.882Z,82.80
2019-01-16T06:38:55.790Z,83.45
2019-01-16T06:41:42.741Z,76.40
2019-01-16T06:44:30.829Z,76.90
2019-01-16T06:47:10.401Z,73.57
2019-01-16T06:50:01.728Z,81.50
2019-01-16T06:55:35.720Z,79.93
2019-01-16T06:58:22.641Z,72.47
2019-01-16T07:01:28.581Z,73.20
2019-01-16T07:04:15.658Z,72.13
2019-01-16T07:07:02.657Z,71.70
2019-01-16T07:09:49.710Z,68.30
2019-01-16T07:12:36.647Z,77.07
2019-01-16T07:17:57.443Z,80.10
2019-01-16T07:20:44.365Z,75.40
2019-01-16T07:23:31.342Z,76.60
2019-01-16T07:26:18.371Z,74.30
2019-01-16T07:29:05.365Z,76.53
2019-01-16T07:31:52.349Z,76.90
2019-01-16T07:34:39.321Z,73.67
2019-01-16T07:37:26.208Z,72.77
2019-01-16T07:40:13.213Z,72.40
2019-01-16T07:43:00.133Z,71.17
2019-01-16T07:45:47.013Z,73.57
2019-01-16T07:48:34.064Z,75.50
2019-01-16T07:51:21.062Z,71.87
2019-01-16T07:54:07.989Z,73.67
2019-01-16T07:56:54.895Z,77.53
2019-01-16T08:02:22.198Z,71.60
2019-01-16T08:05:09.219Z,75.97
2019-01-16T08:07:56.173Z,77.90
2019-01-16T08:10:43.177Z,86.93
2019-01-16T08:13:30.124Z,76.40
2019-01-16T08:16:17.036Z,74.37
2019-01-16T08:19:03.964Z,72.07
2019-01-16T08:21:45.514Z,72.73
2019-01-16T08:24:32.442Z,71.70
2019-01-16T08:27:19.346Z,78.63
2019-01-16T08:30:06.293Z,73.67
2019-01-16T08:32:53.295Z,79.23
2019-01-16T08:35:40.324Z,72.67
2019-01-16T08:38:27.325Z,73.13
2019-01-16T08:41:14.356Z,74.83
2019-01-16T08:44:01.339Z,84.97
2019-01-16T08:46:48.387Z,78.63
2019-01-16T08:49:35.392Z,83.47
2019-01-16T08:52:19.624Z,82.67
2019-01-16T08:55:02.790Z,77.30
2019-01-16T08:57:49.825Z,86.23
2019-01-16T09:00:34.698Z,76.20
2019-01-16T09:03:21.623Z,84.63
2019-01-16T09:05:59.496Z,76.57
2019-01-16T09:08:46.439Z,73.87
2019-01-16T09:11:33.385Z,77.27
2019-01-16T09:14:12.983Z,72.40
2019-01-16T09:16:59.912Z,76.80
2019-01-16T09:19:43.039Z,74.77
2019-01-16T09:22:29.962Z,79.20
2019-01-16T09:25:16.937Z,89.47
2019-01-16T09:28:03.884Z,77.63
2019-01-16T09:30:42.259Z,81.00
2019-01-16T09:33:29.508Z,81.27
2019-01-16T09:36:16.560Z,73.60
2019-01-16T09:39:03.505Z,73.07
2019-01-16T09:41:50.484Z,78.47
2019-01-16T09:44:37.407Z,77.37
2019-01-16T09:47:24.455Z,74.87
2019-01-16T09:50:11.475Z,76.83
2019-01-16T09:52:58.464Z,74.20
2019-01-16T09:55:45.434Z,76.27
2019-01-16T09:58:32.452Z,78.77
2019-01-16T10:01:19.429Z,82.70
2019-01-16T10:03:58.064Z,74.47
2019-01-16T10:06:44.986Z,72.73
2019-01-16T10:09:32.034Z,78.13
2019-01-16T10:12:18.932Z,82.70
2019-01-16T10:14:58.144Z,85.20
2019-01-16T10:17:45.165Z,77.23
2019-01-16T10:20:32.157Z,75.70
2019-01-16T10:23:19.172Z,78.10
2019-01-16T10:26:06.132Z,92.33
2019-01-16T10:28:53.072Z,82.33
2019-01-16T10:31:40.069Z,121.57
2019-01-16T10:34:27.175Z,86.50
2019-01-16T10:37:14.172Z,79.10
2019-01-16T10:40:01.132Z,80.40
2019-01-16T10:42:48.037Z,102.27
2019-01-16T10:45:35.000Z,94.90
2019-01-16T10:48:21.991Z,76.67
2019-01-16T10:51:08.998Z,75.53
2019-01-16T10:53:45.055Z,83.53
2019-01-16T10:56:32.036Z,105.60
2019-01-16T10:59:18.293Z,144.63
2019-01-16T11:04:59.068Z,131.67
2019-01-16T11:07:46.044Z,98.77
2019-01-16T11:10:33.046Z,79.93
2019-01-16T11:13:20.243Z,93.60
2019-01-16T11:16:07.255Z,84.20
2019-01-16T11:18:54.291Z,88.90
2019-01-16T11:21:41.440Z,86.90
2019-01-16T11:24:28.673Z,85.77
2019-01-16T11:27:15.604Z,99.63
2019-01-16T11:30:02.581Z,96.00
2019-01-16T11:32:49.624Z,93.87
2019-01-16T11:35:31.945Z,88.83
2019-01-16T11:38:18.906Z,83.83
2019-01-16T11:41:05.838Z,88.33
2019-01-16T11:43:52.734Z,85.87
2019-01-16T11:46:39.844Z,81.20
2019-01-16T11:49:26.841Z,84.40
2019-01-16T11:52:13.870Z,82.00
2019-01-16T11:55:00.932Z,80.97
2019-01-16T12:00:48.975Z,78.30
2019-01-16T12:03:35.877Z,88.10
2019-01-16T12:06:22.940Z,80.57
2019-01-16T12:09:09.902Z,86.80
2019-01-16T12:14:57.961Z,90.33
2019-01-16T12:17:35.000Z,152.87
2019-01-16T12:20:22.025Z,99.23
2019-01-16T12:23:08.907Z,108.17
2019-01-16T12:25:55.893Z,96.23
2019-01-16T12:28:42.840Z,93.00
2019-01-16T12:31:17.892Z,93.03
2019-01-16T12:34:04.851Z,92.10
2019-01-16T12:36:51.777Z,99.17
2019-01-16T12:39:39.086Z,95.40
2019-01-16T12:42:26.010Z,100.17
2019-01-16T12:45:13.210Z,118.60
2019-01-16T12:48:00.335Z,119.17
2019-01-16T12:50:47.545Z,131.43
2019-01-16T12:53:34.608Z,99.03
2019-01-16T12:56:21.709Z,122.13
2019-01-16T12:59:08.896Z,104.20
2019-01-16T13:01:56.093Z,94.80
2019-01-16T13:04:36.022Z,104.60
2019-01-16T13:07:23.351Z,99.73
2019-01-16T13:10:10.628Z,87.20
2019-01-16T13:12:57.935Z,87.50
2019-01-16T13:15:45.084Z,77.60
2019-01-16T13:21:31.498Z,79.17
2019-01-16T13:24:18.707Z,74.20
2019-01-16T13:27:06.099Z,81.87
2019-01-16T13:29:53.075Z,80.60
2019-01-16T13:32:40.094Z,78.10
2019-01-16T13:35:27.275Z,76.93
2019-01-16T13:38:14.417Z,79.00
2019-01-16T13:41:01.582Z,79.37
2019-01-16T13:43:48.987Z,81.63
2019-01-16T13:46:25.114Z,94.17
2019-01-16T13:49:12.001Z,83.60
2019-01-16T13:51:59.076Z,102.17
2019-01-16T13:54:46.229Z,103.07
2019-01-16T13:57:33.381Z,124.80
2019-01-16T14:00:20.488Z,119.83
2019-01-16T14:03:07.595Z,123.87
2019-01-16T14:05:44.639Z,102.00
2019-01-16T14:08:31.692Z,109.90
2019-01-16T14:11:18.618Z,107.80
2019-01-16T14:14:05.800Z,96.93
2019-01-16T14:16:52.932Z,99.80
2019-01-16T14:19:31.491Z,93.90
2019-01-16T14:22:18.537Z,91.50
2019-01-16T14:25:05.671Z,92.13
2019-01-16T14:27:52.650Z,98.53
2019-01-16T14:30:39.760Z,88.00
2019-01-16T14:33:27.027Z,88.27
2019-01-16T14:36:08.548Z,81.83
2019-01-16T14:38:55.513Z,87.90
2019-01-16T14:41:42.552Z,85.17
2019-01-16T14:44:29.621Z,79.30
2019-01-16T14:47:16.764Z,94.37
2019-01-16T14:50:03.657Z,84.87
2019-01-16T14:52:50.589Z,96.07
2019-01-16T14:55:37.480Z,82.83
2019-01-16T14:58:14.325Z,91.20
2019-01-16T15:01:01.280Z,84.80
2019-01-16T15:03:48.255Z,81.80
2019-01-16T15:06:35.167Z,85.17
2019-01-16T15:09:22.075Z,93.20
2019-01-16T15:12:09.019Z,84.00
2019-01-16T15:14:55.892Z,79.67
2019-01-16T15:17:34.253Z,78.00
2019-01-16T15:20:21.119Z,89.27
2019-01-16T15:23:08.056Z,82.97
2019-01-16T15:25:52.070Z,89.00
2019-01-16T15:28:39.003Z,90.67
2019-01-16T15:31:25.915Z,86.63
2019-01-16T15:37:15.444Z,88.13
2019-01-16T15:40:02.480Z,85.37
2019-01-16T15:42:49.351Z,82.00
2019-01-16T15:45:36.303Z,88.33
2019-01-16T15:48:23.263Z,81.53
2019-01-16T15:51:10.467Z,83.67
2019-01-16T15:53:57.406Z,78.27
2019-01-16T15:56:44.376Z,75.07
2019-01-16T15:59:27.828Z,72.27
2019-01-16T16:02:15.187Z,74.03
2019-01-16T16:05:02.148Z,78.93
2019-01-16T16:07:49.528Z,75.40
2019-01-16T16:10:36.445Z,95.60
2019-01-16T16:13:23.393Z,79.23
2019-01-16T16:16:10.329Z,88.47
2019-01-16T16:18:57.372Z,86.03
2019-01-16T16:21:44.266Z,80.90
2019-01-16T16:24:31.320Z,76.57
2019-01-16T16:27:15.693Z,85.13
2019-01-16T16:30:02.962Z,75.97
2019-01-16T16:32:49.989Z,133.10
2019-01-16T16:35:36.971Z,78.03
2019-01-16T16:38:24.009Z,75.30
2019-01-16T16:41:10.972Z,77.63
2019-01-16T16:43:57.992Z,78.20
2019-01-16T16:46:44.948Z,78.83
2019-01-16T16:49:31.942Z,79.77
2019-01-16T16:52:11.675Z,77.00
2019-01-16T16:54:58.643Z,85.80
2019-01-16T16:57:35.206Z,84.27
2019-01-16T17:00:22.156Z,77.73
2019-01-16T17:03:09.168Z,77.20
2019-01-16T17:05:56.223Z,80.90
2019-01-16T17:08:43.194Z,77.80
2019-01-16T17:11:30.130Z,76.10
2019-01-16T17:14:17.151Z,75.17
2019-01-16T17:17:04.008Z,71.50
2019-01-16T17:19:50.974Z,73.97
2019-01-16T17:22:37.970Z,72.17
2019-01-16T17:25:25.270Z,71.60
2019-01-16T17:28:12.196Z,74.63
2019-01-16T17:30:59.112Z,77.90
2019-01-16T17:33:46.008Z,79.80
2019-01-16T17:36:33.081Z,76.77
2019-01-16T17:39:20.054Z,80.43
2019-01-16T17:42:04.899Z,74.40
2019-01-16T17:44:50.711Z,76.27
2019-01-16T17:47:37.608Z,79.17
2019-01-16T17:50:25.718Z,82.00
2019-01-16T17:53:12.725Z,77.03
2019-01-16T17:55:59.666Z,77.00
2019-01-16T17:58:46.752Z,81.83
2019-01-16T18:01:33.640Z,74.87
2019-01-16T18:06:55.831Z,74.60
2019-01-16T18:09:42.936Z,85.13
2019-01-16T18:12:20.207Z,74.53
2019-01-16T18:15:07.209Z,75.80
2019-01-16T18:17:54.175Z,77.43
2019-01-16T18:20:41.215Z,80.90
2019-01-16T18:23:28.131Z,77.70
2019-01-16T18:26:15.003Z,82.27
2019-01-16T18:29:21.082Z,78.60
2019-01-16T18:32:08.350Z,79.57
2019-01-16T18:34:55.333Z,90.80
2019-01-16T18:37:42.288Z,78.97
2019-01-16T18:40:18.039Z,82.23
2019-01-16T18:43:05.018Z,81.87
2019-01-16T18:45:51.961Z,76.00
2019-01-16T18:48:38.853Z,85.40
2019-01-16T18:51:25.920Z,79.53
2019-01-16T18:54:12.881Z,75.23
2019-01-16T18:56:59.802Z,76.50
2019-01-16T18:59:46.740Z,78.13
2019-01-16T19:02:33.631Z,78.03
2019-01-16T19:05:20.599Z,70.00
2019-01-16T19:08:07.723Z,74.37
2019-01-16T19:10:54.678Z,72.50
2019-01-16T19:13:41.665Z,77.10
2019-01-16T19:16:37.352Z,78.87
2019-01-16T19:19:24.265Z,79.37
2019-01-16T19:22:02.167Z,73.37
2019-01-16T19:24:49.122Z,78.00
2019-01-16T19:27:36.115Z,75.07
2019-01-16T19:33:26.329Z,81.63
2019-01-16T19:36:13.266Z,77.77
2019-01-16T19:39:00.221Z,76.20
2019-01-16T19:41:47.189Z,78.53
2019-01-16T19:44:34.184Z,74.63
2019-01-16T19:47:21.132Z,73.00
2019-01-16T19:50:08.023Z,74.00
2019-01-16T19:52:54.981Z,71.40
2019-01-16T19:55:42.076Z,79.17
2019-01-16T19:58:20.438Z,77.80
2019-01-16T20:01:07.400Z,86.30
2019-01-16T20:03:54.328Z,73.70
2019-01-16T20:06:31.580Z,81.90
2019-01-16T20:09:18.499Z,82.30
2019-01-16T20:12:04.873Z,86.17
2019-01-16T20:14:51.914Z,86.93
2019-01-16T20:17:39.145Z,84.30
2019-01-16T20:20:26.484Z,79.93
2019-01-16T20:23:13.395Z,79.80
2019-01-16T20:26:00.473Z,79.20
2019-01-16T20:28:47.665Z,77.80
2019-01-16T20:31:34.626Z,90.30
2019-01-16T20:34:21.576Z,81.20
2019-01-16T20:37:08.450Z,79.27
2019-01-16T20:39:55.408Z,81.63
2019-01-16T20:42:33.929Z,76.47
2019-01-16T20:45:20.898Z,76.60
2019-01-16T20:48:07.835Z,79.63
2019-01-16T20:50:45.974Z,76.70
2019-01-16T20:53:32.997Z,80.30
2019-01-16T20:56:19.936Z,78.57
2019-01-16T20:59:06.904Z,83.50
2019-01-16T21:01:53.879Z,82.30
2019-01-16T21:04:40.812Z,81.60
2019-01-16T21:07:27.722Z,92.30
2019-01-16T21:10:14.654Z,85.00
2019-01-16T21:13:01.635Z,83.53
2019-01-16T21:15:52.005Z,86.17
2019-01-16T21:18:39.044Z,84.23
2019-01-16T21:21:25.976Z,84.07
2019-01-16T21:24:12.892Z,80.80
2019-01-16T21:26:59.805Z,91.13
2019-01-16T21:29:46.737Z,84.67
2019-01-16T21:32:33.743Z,82.20
2019-01-16T21:35:12.799Z,81.10
2019-01-16T21:37:59.987Z,82.67
2019-01-16T21:40:47.260Z,84.40
2019-01-16T21:43:34.261Z,81.73
2019-01-16T21:46:21.202Z,92.53
2019-01-16T21:49:08.181Z,97.13
2019-01-16T21:51:55.175Z,83.00
2019-01-16T21:54:42.442Z,92.03
2019-01-16T22:00:09.699Z,90.97
2019-01-16T22:02:50.055Z,92.00
2019-01-16T22:05:37.028Z,89.80
2019-01-16T22:08:24.132Z,83.67
2019-01-16T22:11:11.112Z,89.57
2019-01-16T22:13:58.070Z,91.25
2019-01-16T22:16:45.075Z,81.63
2019-01-16T22:19:25.180Z,91.90
2019-01-16T22:22:12.139Z,84.87
2019-01-16T22:24:59.248Z,77.20
2019-01-16T22:27:46.211Z,87.70
2019-01-16T22:30:34.028Z,80.50
2019-01-16T22:33:08.050Z,79.67
2019-01-16T22:35:55.315Z,77.10
2019-01-16T22:38:42.229Z,94.03
2019-01-16T22:41:29.203Z,88.60
2019-01-16T22:44:16.355Z,79.23
2019-01-16T22:50:00.167Z,79.40
2019-01-16T22:52:41.489Z,77.10
2019-01-16T22:55:28.534Z,76.00
2019-01-16T22:58:15.511Z,74.10
2019-01-16T23:03:46.423Z,73.73
2019-01-16T23:06:30.796Z,72.57
2019-01-16T23:09:17.683Z,71.50
2019-01-16T23:12:04.685Z,73.03
2019-01-16T23:14:44.609Z,80.33
2019-01-16T23:17:21.045Z,73.40
2019-01-16T23:20:08.184Z,75.33
2019-01-16T23:22:55.141Z,76.73
2019-01-16T23:25:42.384Z,79.40
2019-01-16T23:28:29.361Z,76.33
2019-01-16T23:31:16.319Z,79.23
2019-01-16T23:34:03.273Z,75.57
2019-01-16T23:36:42.417Z,75.20
2019-01-16T23:39:29.358Z,74.83
2019-01-16T23:42:16.311Z,75.10
2019-01-16T23:45:03.275Z,72.32
2019-01-16T23:47:50.231Z,72.35
2019-01-16T23:50:37.198Z,72.67
2019-01-16T23:53:24.170Z,74.60
2019-01-16T23:56:11.135Z,77.00
2019-01-16T23:58:46.847Z,75.67
